Terminal Aerodrome Forecast
Issued by NWS

Home | Current Version | Previous Version | Text Only | Print | Product List | Glossary On
Versions: 1 2 3 4 5 6 7 8 9 10 11 12 13 14
000
FTUS45 KRIW 242300
TAFBPI
TAF
KBPI 242320Z 2500/2524 VRB06KT P6SM -SHRA SCT030 BKN045
     FM250800 34007KT 6SM -RA BR SCT010 OVC025
     FM251700 33012KT P6SM SCT020 BKN050=

USA.gov is the U.S. government's official web portal to all federal, state and local government web resources and services.